Medicine Hat, Canada
Current Conditions -  °F | °C
As of 2:00 PM on Thursday 18 Dec 2014 (Local Time) from CYXH Reporting Station
Broken Clouds Broken Clouds  
Wind Chill: 19°   Ceiling: 28000
Heat Index: 19°   Visibility: 30mi
Dew Point: 18°   Wind: 3mph
Humidity: 93%   Direction: 50°NE
Pressure: 29.84"   Gusts: NA
Location:  50.04°N, 110.68°W
Report Text: CYXH 182100Z 05003KT 30SM SCT130 BKN280 M07/M08 A2984 RMK AC3CI3 SLP141
Loading
Personal Weather Stations






























Interactive Weather Map New forecast layout! Learn more

10-Day Weather Forecast

Advertisements
Track Severe Weather on mobile